Linton, ND

12:22 PM CST on February 07, 2016 (GMT -0600)
Linton Municipal Airport | | Change Station
CLOSE
Current Station
Airport
Location: Linton Municipal Airport,
Elevation: 1778 ft
Nearby Weather Stations
Active Advisory: High Wind Warning

Elev 1778 ft 46.22 °N, 100.25 °W | Updated 7 minutes ago

Overcast
Overcast
30 °F
Feels Like 14 °F
N
36
Wind Variable Wind from NW
Gusts 48 mph

Today
High -- | Low -- °F
--% Chance of Precip.
Yesterday
High -- | Low -- °F
Precip. -- in
Pressure 29.94 in
Visibility 10.0 miles
Clouds Overcast 2700 ft
Windchill 14 °F
Dew Point 23 °F
Humidity 75%
Rainfall 1.11 in
Snow Depth Not available.
7:56 AM 5:54 PM
Waning Crescent, 1% visible
METAR K7L2 071815Z AUTO 32031G42KT 10SM -SN OVC027 M01/M05 A2994 RMK AO2
Pressure 29.94 in
Visibility 10.0 miles
Clouds Overcast 2700 ft
Windchill 14 °F
Dew Point 23 °F
Humidity 75%
Rainfall 1.11 in
Snow Depth Not available.
7:56 AM 5:54 PM
Waning Crescent, 1% visible
METAR K7L2 071815Z AUTO 32031G42KT 10SM -SN OVC027 M01/M05 A2994 RMK AO2

10-Day Weather Forecast

Almanac

Astronomy

Feb. 07, 2016 Rise Set
Actual Time
Civil Twilight
Nautical Twilight
Astronomical Twilight
Moon
Length of Visible Light
Length of Day
Tomorrow will be .
, % of the Moon is Illuminated

Today's Extremes

State Highs State Lows

Community

WunderPhotos

Upload Photos

1,891,276 photos uploaded!

WunderBlog® & News

Nearby

Air Quality

  Air Quality AQ Index Pollutant
Not available.

Snow Depth

Station Depth Elevation

Earthquake Activity

City Distance Mag. Time & Date
Minimum magnitude displayed is 2.5.

Coastal Water Temperatures

Place Temperature

Stations

Nearby Weather Stations

Station Location Temp. Windchill Dew Point Humidity Wind Precip. Elev Updated Type
                   

Watches & Warnings

High Wind Warning
Issued: 9:05 AM MST Feb. 7, 2016 – National Weather Service

... High Wind Warning remains in effect until 6 am CST /5 am MST/
Monday...

* timing... through tonight.

* Winds... northwest winds gusting up to 65 mph.

* Impacts... travel will be hazardous over western and central
North Dakota. Snow and blowing snow may reduce
visibilities... particularly through late this afternoon.

Precautionary/preparedness actions...

A High Wind Warning means a hazardous high wind event is expected
or occurring. Sustained wind speeds of at least 40 mph or gusts
of 58 mph or more can lead to property damage.



Jjs